RYR525 EPMO-EPKK
Flight info
| Callsign | RYR525 |
|---|---|
| Flight time | 0h 46m |
| Altitude | 32000 |
| Route | EVINA3J EVINA M66 KUKAM KUKAM4G |
| Aircraft | B738/M-SDE2E3FGHIRWXY/LB1 |
Departure
| Time | 2026-05-06 15:02 |
|---|---|
| Airport | Warsaw Modlin Airport (EPMO) |
Arrival
| Time | 2026-05-06 15:49 |
|---|---|
| Airport | Kraków John Paul II International Airport (EPKK) |
| Time | Latitude | Longitude | Altitude | Speed | Heading |
|---|---|---|---|---|---|
| 2026-05-06 14:38 | 52.44749 | 20.65270 | 358 ft | 0 kts | 194° |
| 2026-05-06 14:38 | 52.44749 | 20.65269 | 349 ft | 0 kts | 194° |
| 2026-05-06 14:38 | 52.44749 | 20.65270 | 349 ft | 0 kts | 194° |
| 2026-05-06 14:54 | 52.44762 | 20.65274 | 359 ft | 3 kts | 182° |
| 2026-05-06 14:54 | 52.44778 | 20.65270 | 355 ft | 3 kts | 139° |
| 2026-05-06 14:54 | 52.44787 | 20.65247 | 356 ft | 3 kts | 92° |
| 2026-05-06 14:54 | 52.44787 | 20.65229 | 355 ft | 2 kts | 81° |
| 2026-05-06 14:57 | 52.44787 | 20.65232 | 355 ft | 1 kts | 81° |
| 2026-05-06 14:57 | 52.44792 | 20.65286 | 353 ft | 9 kts | 81° |
| 2026-05-06 14:57 | 52.44807 | 20.65435 | 356 ft | 16 kts | 81° |
| 2026-05-06 14:58 | 52.44824 | 20.65620 | 354 ft | 16 kts | 81° |
| 2026-05-06 14:58 | 52.44841 | 20.65798 | 355 ft | 16 kts | 84° |
| 2026-05-06 14:58 | 52.44855 | 20.65971 | 351 ft | 15 kts | 81° |
| 2026-05-06 14:58 | 52.44870 | 20.66135 | 352 ft | 14 kts | 82° |
| 2026-05-06 14:59 | 52.44884 | 20.66293 | 356 ft | 14 kts | 82° |
| 2026-05-06 14:59 | 52.44899 | 20.66444 | 351 ft | 13 kts | 81° |
| 2026-05-06 14:59 | 52.44914 | 20.66596 | 348 ft | 16 kts | 81° |
| 2026-05-06 14:59 | 52.44934 | 20.66816 | 348 ft | 21 kts | 81° |
| 2026-05-06 15:00 | 52.44966 | 20.67043 | 348 ft | 20 kts | 49° |
| 2026-05-06 15:00 | 52.45056 | 20.67060 | 355 ft | 20 kts | 352° |
| 2026-05-06 15:00 | 52.45164 | 20.67034 | 352 ft | 0 kts | 349° |
| 2026-05-06 15:01 | 52.45175 | 20.67030 | 353 ft | 4 kts | 348° |
| 2026-05-06 15:01 | 52.45214 | 20.67011 | 355 ft | 9 kts | 342° |
| 2026-05-06 15:01 | 52.45280 | 20.66905 | 350 ft | 17 kts | 275° |
| 2026-05-06 15:02 | 52.45254 | 20.66618 | 355 ft | 47 kts | 261° |
| 2026-05-06 15:02 | 52.45167 | 20.65684 | 359 ft | 116 kts | 261° |
| 2026-05-06 15:02 | 52.45013 | 20.64075 | 430 ft | 165 kts | 261° |
| 2026-05-06 15:02 | 52.44830 | 20.62200 | 1289 ft | 160 kts | 259° |
| 2026-05-06 15:03 | 52.44692 | 20.60408 | 2178 ft | 162 kts | 261° |
| 2026-05-06 15:03 | 52.44577 | 20.58427 | 2688 ft | 189 kts | 263° |
| 2026-05-06 15:03 | 52.44513 | 20.56253 | 3413 ft | 192 kts | 276° |
| 2026-05-06 15:03 | 52.45060 | 20.54172 | 3982 ft | 211 kts | 303° |
| 2026-05-06 15:04 | 52.46246 | 20.52491 | 4306 ft | 247 kts | 334° |
| 2026-05-06 15:04 | 52.48046 | 20.52007 | 4734 ft | 275 kts | 354° |
| 2026-05-06 15:04 | 52.49991 | 20.51923 | 5496 ft | 284 kts | 355° |
| 2026-05-06 15:04 | 52.51982 | 20.51825 | 6329 ft | 287 kts | 354° |
| 2026-05-06 15:05 | 52.53993 | 20.51681 | 7121 ft | 291 kts | 353° |
| 2026-05-06 15:05 | 52.56026 | 20.51510 | 7957 ft | 294 kts | 352° |
| 2026-05-06 15:05 | 52.58094 | 20.51741 | 8719 ft | 307 kts | 13° |
| 2026-05-06 15:05 | 52.59980 | 20.53463 | 9524 ft | 317 kts | 42° |
| 2026-05-06 15:06 | 52.61182 | 20.56450 | 10161 ft | 326 kts | 72° |
| 2026-05-06 15:06 | 52.61621 | 20.60222 | 10376 ft | 346 kts | 85° |
| 2026-05-06 15:06 | 52.61922 | 20.64221 | 10725 ft | 363 kts | 85° |
| 2026-05-06 15:06 | 52.62275 | 20.68485 | 10892 ft | 386 kts | 84° |
| 2026-05-06 15:07 | 52.62676 | 20.72944 | 11218 ft | 401 kts | 83° |
| 2026-05-06 15:07 | 52.63100 | 20.77508 | 11852 ft | 406 kts | 83° |
| 2026-05-06 15:07 | 52.63530 | 20.82105 | 12600 ft | 407 kts | 84° |
| 2026-05-06 15:07 | 52.63889 | 20.86727 | 13275 ft | 407 kts | 91° |
| 2026-05-06 15:08 | 52.63468 | 20.91297 | 13845 ft | 402 kts | 113° |
| 2026-05-06 15:08 | 52.62201 | 20.95348 | 14391 ft | 397 kts | 130° |
| 2026-05-06 15:08 | 52.60310 | 20.98599 | 14871 ft | 393 kts | 144° |
| 2026-05-06 15:08 | 52.58177 | 21.01443 | 15353 ft | 396 kts | 146° |
| 2026-05-06 15:09 | 52.55888 | 21.03938 | 15775 ft | 393 kts | 161° |
| 2026-05-06 15:09 | 52.53260 | 21.04835 | 16244 ft | 385 kts | 183° |
| 2026-05-06 15:09 | 52.50622 | 21.04277 | 16762 ft | 381 kts | 198° |
| 2026-05-06 15:09 | 52.48127 | 21.02823 | 17209 ft | 382 kts | 203° |
| 2026-05-06 15:10 | 52.45673 | 21.01257 | 17613 ft | 385 kts | 204° |
| 2026-05-06 15:10 | 52.43170 | 20.99640 | 18036 ft | 388 kts | 204° |
| 2026-05-06 15:10 | 52.40650 | 20.98020 | 18423 ft | 389 kts | 204° |
| 2026-05-06 15:10 | 52.38127 | 20.96414 | 18809 ft | 391 kts | 204° |
| 2026-05-06 15:11 | 52.35585 | 20.94811 | 19174 ft | 392 kts | 203° |
| 2026-05-06 15:11 | 52.33028 | 20.93211 | 19515 ft | 394 kts | 203° |
| 2026-05-06 15:11 | 52.30457 | 20.91609 | 19842 ft | 396 kts | 203° |
| 2026-05-06 15:11 | 52.27877 | 20.90008 | 20165 ft | 397 kts | 203° |
| 2026-05-06 15:12 | 52.25286 | 20.88404 | 20483 ft | 399 kts | 203° |
| 2026-05-06 15:12 | 52.22691 | 20.86801 | 20770 ft | 401 kts | 203° |
| 2026-05-06 15:12 | 52.20105 | 20.85204 | 21053 ft | 402 kts | 203° |
| 2026-05-06 15:12 | 52.17448 | 20.83566 | 21340 ft | 404 kts | 203° |
| 2026-05-06 15:13 | 52.14817 | 20.81947 | 21608 ft | 405 kts | 203° |
| 2026-05-06 15:13 | 52.12167 | 20.80317 | 21854 ft | 407 kts | 203° |
| 2026-05-06 15:13 | 52.09507 | 20.78683 | 22102 ft | 409 kts | 203° |
| 2026-05-06 15:13 | 52.06882 | 20.77073 | 22331 ft | 410 kts | 203° |
| 2026-05-06 15:14 | 52.04162 | 20.75407 | 22565 ft | 412 kts | 203° |
| 2026-05-06 15:14 | 52.01472 | 20.73761 | 22786 ft | 414 kts | 203° |
| 2026-05-06 15:14 | 51.98808 | 20.72133 | 22993 ft | 415 kts | 203° |
| 2026-05-06 15:14 | 51.96098 | 20.70479 | 23187 ft | 417 kts | 203° |
| 2026-05-06 15:15 | 51.93379 | 20.68822 | 23365 ft | 419 kts | 203° |
| 2026-05-06 15:15 | 51.90648 | 20.67160 | 23538 ft | 420 kts | 203° |
| 2026-05-06 15:15 | 51.87917 | 20.65500 | 23722 ft | 420 kts | 203° |
| 2026-05-06 15:15 | 51.85174 | 20.63835 | 23893 ft | 421 kts | 203° |
| 2026-05-06 15:16 | 51.82433 | 20.62173 | 24052 ft | 422 kts | 203° |
| 2026-05-06 15:16 | 51.79675 | 20.60503 | 24132 ft | 424 kts | 203° |
| 2026-05-06 15:16 | 51.76915 | 20.58833 | 24168 ft | 422 kts | 203° |
| 2026-05-06 15:16 | 51.74165 | 20.57174 | 24428 ft | 420 kts | 203° |
| 2026-05-06 15:17 | 51.71420 | 20.55518 | 24668 ft | 423 kts | 203° |
| 2026-05-06 15:17 | 51.68655 | 20.53851 | 24757 ft | 426 kts | 203° |
| 2026-05-06 15:17 | 51.65873 | 20.52177 | 24766 ft | 427 kts | 203° |
| 2026-05-06 15:17 | 51.63099 | 20.50510 | 24773 ft | 426 kts | 203° |
| 2026-05-06 15:18 | 51.60321 | 20.48844 | 24773 ft | 426 kts | 203° |
| 2026-05-06 15:18 | 51.57545 | 20.47181 | 24773 ft | 425 kts | 203° |
| 2026-05-06 15:18 | 51.54804 | 20.45541 | 24778 ft | 425 kts | 203° |
| 2026-05-06 15:18 | 51.52043 | 20.43891 | 24771 ft | 422 kts | 203° |
| 2026-05-06 15:19 | 51.49256 | 20.42287 | 24770 ft | 420 kts | 202° |
| 2026-05-06 15:19 | 51.46480 | 20.40791 | 24785 ft | 421 kts | 201° |
| 2026-05-06 15:19 | 51.43689 | 20.39325 | 24777 ft | 423 kts | 201° |
| 2026-05-06 15:19 | 51.40926 | 20.37879 | 24786 ft | 424 kts | 201° |
| 2026-05-06 15:20 | 51.38115 | 20.36402 | 24785 ft | 425 kts | 201° |
| 2026-05-06 15:20 | 51.35309 | 20.34920 | 24606 ft | 423 kts | 201° |
| 2026-05-06 15:20 | 51.32527 | 20.33447 | 24363 ft | 420 kts | 201° |
| 2026-05-06 15:20 | 51.29762 | 20.31979 | 24126 ft | 419 kts | 201° |
| 2026-05-06 15:21 | 51.26997 | 20.30508 | 23773 ft | 419 kts | 201° |
| 2026-05-06 15:21 | 51.24228 | 20.29037 | 23426 ft | 417 kts | 201° |
| 2026-05-06 15:21 | 51.21482 | 20.27579 | 22993 ft | 417 kts | 201° |
| 2026-05-06 15:21 | 51.18719 | 20.26114 | 22444 ft | 415 kts | 201° |
| 2026-05-06 15:22 | 51.16014 | 20.24685 | 21903 ft | 404 kts | 201° |
| 2026-05-06 15:22 | 51.13396 | 20.23306 | 21365 ft | 387 kts | 201° |
| 2026-05-06 15:22 | 51.10894 | 20.21990 | 20843 ft | 371 kts | 201° |
| 2026-05-06 15:22 | 51.08486 | 20.20723 | 20333 ft | 357 kts | 201° |
| 2026-05-06 15:23 | 51.06168 | 20.19502 | 19834 ft | 345 kts | 201° |
| 2026-05-06 15:23 | 51.03921 | 20.18318 | 19346 ft | 335 kts | 201° |
| 2026-05-06 15:23 | 51.01761 | 20.17180 | 18787 ft | 329 kts | 201° |
| 2026-05-06 15:23 | 50.99605 | 20.16045 | 18206 ft | 324 kts | 201° |
| 2026-05-06 15:24 | 50.97476 | 20.14925 | 17545 ft | 320 kts | 201° |
| 2026-05-06 15:24 | 50.95379 | 20.13824 | 16900 ft | 316 kts | 201° |
| 2026-05-06 15:24 | 50.93304 | 20.12737 | 16255 ft | 313 kts | 201° |
| 2026-05-06 15:24 | 50.91244 | 20.11658 | 15628 ft | 310 kts | 201° |
| 2026-05-06 15:25 | 50.89206 | 20.10591 | 15009 ft | 307 kts | 201° |
| 2026-05-06 15:25 | 50.87183 | 20.09533 | 14403 ft | 305 kts | 200° |
| 2026-05-06 15:25 | 50.85171 | 20.08483 | 13803 ft | 303 kts | 200° |
| 2026-05-06 15:25 | 50.83171 | 20.07441 | 13170 ft | 301 kts | 200° |
| 2026-05-06 15:26 | 50.81189 | 20.06417 | 12522 ft | 299 kts | 199° |
| 2026-05-06 15:26 | 50.79149 | 20.05903 | 12105 ft | 294 kts | 186° |
| 2026-05-06 15:26 | 50.77104 | 20.05800 | 11706 ft | 286 kts | 185° |
| 2026-05-06 15:26 | 50.75126 | 20.05739 | 11331 ft | 284 kts | 184° |
| 2026-05-06 15:27 | 50.73171 | 20.05676 | 10959 ft | 278 kts | 185° |
| 2026-05-06 15:27 | 50.71262 | 20.05608 | 10582 ft | 272 kts | 185° |
| 2026-05-06 15:27 | 50.69392 | 20.05532 | 10221 ft | 266 kts | 185° |
| 2026-05-06 15:27 | 50.67572 | 20.05453 | 10004 ft | 256 kts | 185° |
| 2026-05-06 15:28 | 50.65826 | 20.05375 | 9793 ft | 246 kts | 185° |
| 2026-05-06 15:28 | 50.64139 | 20.05297 | 9582 ft | 239 kts | 185° |
| 2026-05-06 15:28 | 50.62487 | 20.05215 | 9365 ft | 238 kts | 185° |
| 2026-05-06 15:28 | 50.60835 | 20.05133 | 9155 ft | 242 kts | 185° |
| 2026-05-06 15:29 | 50.59134 | 20.05050 | 8936 ft | 246 kts | 185° |
| 2026-05-06 15:29 | 50.57425 | 20.04970 | 8695 ft | 244 kts | 185° |
| 2026-05-06 15:29 | 50.55731 | 20.04887 | 8460 ft | 242 kts | 185° |
| 2026-05-06 15:29 | 50.54051 | 20.04804 | 8234 ft | 241 kts | 185° |
| 2026-05-06 15:30 | 50.52384 | 20.04723 | 8012 ft | 239 kts | 184° |
| 2026-05-06 15:30 | 50.50725 | 20.04643 | 7777 ft | 238 kts | 185° |
| 2026-05-06 15:30 | 50.49077 | 20.04564 | 7550 ft | 236 kts | 185° |
| 2026-05-06 15:30 | 50.47435 | 20.04486 | 7329 ft | 234 kts | 185° |
| 2026-05-06 15:31 | 50.45810 | 20.04409 | 7103 ft | 233 kts | 185° |
| 2026-05-06 15:31 | 50.44194 | 20.04318 | 6898 ft | 232 kts | 185° |
| 2026-05-06 15:31 | 50.42579 | 20.04223 | 6672 ft | 231 kts | 185° |
| 2026-05-06 15:32 | 50.39382 | 20.04033 | 6254 ft | 229 kts | 185° |
| 2026-05-06 15:32 | 50.37781 | 20.03936 | 6028 ft | 231 kts | 185° |
| 2026-05-06 15:32 | 50.36166 | 20.03840 | 5802 ft | 232 kts | 185° |
| 2026-05-06 15:32 | 50.34557 | 20.03747 | 5566 ft | 231 kts | 185° |
| 2026-05-06 15:33 | 50.32951 | 20.03653 | 5339 ft | 230 kts | 185° |
| 2026-05-06 15:33 | 50.31354 | 20.03559 | 5131 ft | 230 kts | 185° |
| 2026-05-06 15:33 | 50.29742 | 20.03464 | 5017 ft | 232 kts | 184° |
| 2026-05-06 15:33 | 50.28131 | 20.03680 | 4821 ft | 232 kts | 172° |
| 2026-05-06 15:34 | 50.26582 | 20.04206 | 4649 ft | 228 kts | 171° |
| 2026-05-06 15:34 | 50.25056 | 20.04741 | 4461 ft | 220 kts | 171° |
| 2026-05-06 15:34 | 50.23589 | 20.05245 | 4274 ft | 212 kts | 171° |
| 2026-05-06 15:34 | 50.22232 | 20.06004 | 4080 ft | 206 kts | 147° |
| 2026-05-06 15:35 | 50.21368 | 20.07703 | 3919 ft | 202 kts | 116° |
| 2026-05-06 15:35 | 50.21152 | 20.09896 | 3786 ft | 211 kts | 86° |
| 2026-05-06 15:35 | 50.21397 | 20.12164 | 3653 ft | 210 kts | 79° |
| 2026-05-06 15:35 | 50.21702 | 20.14365 | 3563 ft | 205 kts | 79° |
| 2026-05-06 15:36 | 50.21996 | 20.16490 | 3723 ft | 198 kts | 79° |
| 2026-05-06 15:36 | 50.22288 | 20.18627 | 3993 ft | 203 kts | 79° |
| 2026-05-06 15:36 | 50.22590 | 20.20793 | 3997 ft | 206 kts | 79° |
| 2026-05-06 15:36 | 50.22894 | 20.23003 | 4031 ft | 209 kts | 79° |
| 2026-05-06 15:37 | 50.23194 | 20.25221 | 4025 ft | 207 kts | 79° |
| 2026-05-06 15:37 | 50.23486 | 20.27384 | 4024 ft | 198 kts | 80° |
| 2026-05-06 15:37 | 50.23692 | 20.29429 | 4032 ft | 182 kts | 96° |
| 2026-05-06 15:37 | 50.23235 | 20.31129 | 4037 ft | 168 kts | 135° |
| 2026-05-06 15:38 | 50.22297 | 20.32144 | 4025 ft | 161 kts | 165° |
| 2026-05-06 15:38 | 50.21231 | 20.32569 | 4019 ft | 158 kts | 172° |
| 2026-05-06 15:38 | 50.20163 | 20.32925 | 4048 ft | 158 kts | 172° |
| 2026-05-06 15:38 | 50.19083 | 20.33278 | 4047 ft | 157 kts | 172° |
| 2026-05-06 15:39 | 50.18019 | 20.33622 | 3988 ft | 157 kts | 172° |
| 2026-05-06 15:39 | 50.16958 | 20.33969 | 4018 ft | 154 kts | 173° |
| 2026-05-06 15:39 | 50.15933 | 20.33916 | 4003 ft | 148 kts | 209° |
| 2026-05-06 15:39 | 50.15244 | 20.32764 | 4023 ft | 152 kts | 250° |
| 2026-05-06 15:40 | 50.15027 | 20.31153 | 4044 ft | 152 kts | 256° |
| 2026-05-06 15:40 | 50.14794 | 20.29541 | 4032 ft | 151 kts | 256° |
| 2026-05-06 15:40 | 50.14569 | 20.27950 | 4015 ft | 150 kts | 256° |
| 2026-05-06 15:40 | 50.14349 | 20.26369 | 4031 ft | 149 kts | 256° |
| 2026-05-06 15:41 | 50.14131 | 20.24791 | 4037 ft | 149 kts | 256° |
| 2026-05-06 15:41 | 50.13914 | 20.23205 | 4023 ft | 149 kts | 257° |
| 2026-05-06 15:41 | 50.13699 | 20.21632 | 4018 ft | 147 kts | 256° |
| 2026-05-06 15:41 | 50.13486 | 20.20075 | 4019 ft | 147 kts | 256° |
| 2026-05-06 15:42 | 50.13345 | 20.19042 | 4013 ft | 147 kts | 257° |
| 2026-05-06 15:42 | 50.13134 | 20.17491 | 4012 ft | 145 kts | 257° |
| 2026-05-06 15:42 | 50.12926 | 20.15958 | 4023 ft | 145 kts | 256° |
| 2026-05-06 15:42 | 50.12714 | 20.14404 | 4026 ft | 148 kts | 256° |
| 2026-05-06 15:43 | 50.12497 | 20.12819 | 4031 ft | 150 kts | 256° |
| 2026-05-06 15:43 | 50.12282 | 20.11235 | 4010 ft | 149 kts | 256° |
| 2026-05-06 15:43 | 50.12060 | 20.09607 | 4026 ft | 159 kts | 257° |
| 2026-05-06 15:43 | 50.11827 | 20.07892 | 3982 ft | 165 kts | 257° |
| 2026-05-06 15:44 | 50.11585 | 20.06122 | 3761 ft | 164 kts | 256° |
| 2026-05-06 15:44 | 50.11352 | 20.04420 | 3585 ft | 159 kts | 256° |
| 2026-05-06 15:44 | 50.11125 | 20.02755 | 3401 ft | 156 kts | 256° |
| 2026-05-06 15:44 | 50.10893 | 20.01067 | 3233 ft | 160 kts | 256° |
| 2026-05-06 15:45 | 50.10661 | 19.99369 | 3080 ft | 163 kts | 256° |
| 2026-05-06 15:45 | 50.10439 | 19.97676 | 2995 ft | 160 kts | 256° |
| 2026-05-06 15:45 | 50.10213 | 19.95958 | 2816 ft | 161 kts | 255° |
| 2026-05-06 15:45 | 50.09973 | 19.94256 | 2608 ft | 159 kts | 256° |
| 2026-05-06 15:46 | 50.09742 | 19.92595 | 2394 ft | 152 kts | 256° |
| 2026-05-06 15:46 | 50.09530 | 19.91077 | 2204 ft | 139 kts | 254° |
| 2026-05-06 15:46 | 50.09322 | 19.89599 | 2039 ft | 142 kts | 253° |
| 2026-05-06 15:46 | 50.09111 | 19.88085 | 1859 ft | 141 kts | 255° |
| 2026-05-06 15:47 | 50.08905 | 19.86617 | 1655 ft | 136 kts | 256° |
| 2026-05-06 15:47 | 50.08703 | 19.85175 | 1483 ft | 137 kts | 257° |
| 2026-05-06 15:47 | 50.08503 | 19.83737 | 1286 ft | 135 kts | 257° |
| 2026-05-06 15:47 | 50.08299 | 19.82281 | 1106 ft | 141 kts | 256° |
| 2026-05-06 15:48 | 50.08093 | 19.80796 | 901 ft | 141 kts | 258° |
| 2026-05-06 15:48 | 50.07894 | 19.79338 | 789 ft | 129 kts | 257° |
| 2026-05-06 15:48 | 50.07744 | 19.78292 | 793 ft | 70 kts | 257° |
| 2026-05-06 15:48 | 50.07660 | 19.77703 | 794 ft | 51 kts | 258° |
| 2026-05-06 15:49 | 50.07593 | 19.77198 | 799 ft | 44 kts | 262° |
| 2026-05-06 15:49 | 50.07565 | 19.76940 | 801 ft | 0 kts | 240° |
| 2026-05-06 15:50 | 50.07557 | 19.76919 | 801 ft | 8 kts | 240° |
| 2026-05-06 15:50 | 50.07491 | 19.76843 | 801 ft | 15 kts | 178° |
| 2026-05-06 15:50 | 50.07352 | 19.76891 | 799 ft | 22 kts | 167° |
| 2026-05-06 15:50 | 50.07317 | 19.77074 | 798 ft | 21 kts | 68° |
| 2026-05-06 15:51 | 50.07351 | 19.77290 | 797 ft | 20 kts | 77° |
| 2026-05-06 15:51 | 50.07381 | 19.77503 | 797 ft | 20 kts | 78° |
| 2026-05-06 15:51 | 50.07409 | 19.77710 | 796 ft | 19 kts | 78° |
| 2026-05-06 15:51 | 50.07437 | 19.77910 | 795 ft | 19 kts | 78° |
| 2026-05-06 15:52 | 50.07463 | 19.78104 | 794 ft | 18 kts | 78° |
| 2026-05-06 15:52 | 50.07489 | 19.78291 | 794 ft | 17 kts | 78° |
| 2026-05-06 15:52 | 50.07514 | 19.78471 | 793 ft | 17 kts | 78° |
| 2026-05-06 15:52 | 50.07538 | 19.78646 | 792 ft | 16 kts | 78° |
| 2026-05-06 15:53 | 50.07561 | 19.78813 | 792 ft | 15 kts | 78° |
| 2026-05-06 15:53 | 50.07583 | 19.78973 | 791 ft | 15 kts | 78° |
| 2026-05-06 15:53 | 50.07605 | 19.79127 | 791 ft | 14 kts | 77° |
| 2026-05-06 15:53 | 50.07626 | 19.79274 | 790 ft | 14 kts | 77° |
| 2026-05-06 15:54 | 50.07646 | 19.79414 | 789 ft | 13 kts | 77° |
| 2026-05-06 15:54 | 50.07665 | 19.79550 | 789 ft | 13 kts | 79° |
| 2026-05-06 15:54 | 50.07651 | 19.79680 | 789 ft | 12 kts | 121° |
| 2026-05-06 15:54 | 50.07607 | 19.79794 | 788 ft | 12 kts | 121° |
| 2026-05-06 15:55 | 50.07560 | 19.79901 | 788 ft | 12 kts | 130° |
| 2026-05-06 15:55 | 50.07505 | 19.79988 | 788 ft | 12 kts | 105° |
| 2026-05-06 15:55 | 50.07517 | 19.80108 | 787 ft | 11 kts | 72° |
| 2026-05-06 15:55 | 50.07537 | 19.80206 | 787 ft | 0 kts | 77° |
| 2026-05-06 15:56 | 50.07537 | 19.80208 | 787 ft | 1 kts | 78° |
| 2026-05-06 15:56 | 50.07533 | 19.80224 | 787 ft | 2 kts | 134° |
| 2026-05-06 15:56 | 50.07507 | 19.80232 | 787 ft | 6 kts | 168° |
| 2026-05-06 15:56 | 50.07491 | 19.80237 | 787 ft | 0 kts | 168° |